Time;durP1;ratioP1;P1;durP2;ratioP2;P2;SDS_P1;SDS_P2;PMS_P1;PMS_P2;Temp;Humidity;BMP_temperature;BMP_pressure;BME280_temperature;BME280_humidity;BME280_pressure;Samples;Min_cycle;Max_cycle;Signal;HPM_P1;HPM_P2
2023/03/14 00:00:21;;;;;;;;;;;;;;;6.52;100.00;91588.88;4974433;28;19918;-77
2023/03/14 00:02:51;;;;;;;;;;;;;;;6.53;100.00;91594.84;4974735;28;20379;-77
2023/03/14 00:05:16;;;;;;;;;;;;;;;6.54;100.00;91586.03;4988568;28;19914;-76
2023/03/14 00:07:42;;;;;;;;;;;;;;;6.49;100.00;91578.31;4974713;28;19981;-77
2023/03/14 00:10:13;;;;;;;;;;;;;;;6.47;100.00;91561.13;4973390;28;19925;-77
2023/03/14 00:12:38;;;;;;;;;;;;;;;6.49;100.00;91536.69;4973472;28;20001;-76
2023/03/14 00:15:06;;;;;;;;;;;;;;;6.47;100.00;91545.53;4974572;28;19996;-76
2023/03/14 00:17:32;;;;;;;;;;;;;;;6.49;100.00;91536.69;4973709;28;19929;-77
2023/03/14 00:20:03;;;;;;;;;;;;;;;6.50;100.00;91527.84;4973426;28;20357;-77
2023/03/14 00:22:29;;;;;;;;;;;;;;;6.54;100.00;91528.81;4988554;28;19933;-76
2023/03/14 00:24:55;;;;;;;;;;;;;;;6.51;100.00;91519.75;4972719;28;20315;-77
2023/03/14 00:27:20;;;;;;;;;;;;;;;6.50;100.00;91505.19;4974120;28;19922;-77
2023/03/14 00:29:45;;;;;;;;;;;;;;;6.51;100.00;91498.16;4973086;28;19969;-77
2023/03/14 00:32:11;;;;;;;;;;;;;;;6.53;100.00;91488.25;4972901;28;19918;-77
2023/03/14 00:34:39;;;;;;;;;;;;;;;6.52;100.00;91468.53;4989002;28;19969;-77
2023/03/14 00:37:05;;;;;;;;;;;;;;;6.54;100.00;91471.63;4973253;28;19922;-77
2023/03/14 00:39:30;;;;;;;;;;;;;;;6.52;100.00;91448.50;4973977;28;19929;-77
2023/03/14 00:41:56;;;;;;;;;;;;;;;6.52;100.00;91448.50;4974013;28;19931;-77
2023/03/14 00:44:21;;;;;;;;;;;;;;;6.53;100.00;91441.44;4972692;28;19997;-77
2023/03/14 00:46:47;;;;;;;;;;;;;;;6.52;100.00;91439.91;4968605;28;20296;-77
2023/03/14 00:49:12;;;;;;;;;;;;;;;6.49;100.00;91445.72;4953308;29;19914;-78
2023/03/14 00:51:38;;;;;;;;;;;;;;;6.48;100.00;91455.31;4959934;28;19920;-77
2023/03/14 00:54:03;;;;;;;;;;;;;;;6.46;100.00;91450.41;4973715;28;20223;-77
2023/03/14 00:56:29;;;;;;;;;;;;;;;6.53;100.00;91438.84;4972448;28;19922;-77
2023/03/14 00:58:55;;;;;;;;;;;;;;;6.64;100.00;91448.03;4968823;28;20369;-76
2023/03/14 01:01:21;;;;;;;;;;;;;;;6.52;100.00;91469.28;4971494;28;19957;-76
2023/03/14 01:03:46;;;;;;;;;;;;;;;6.41;100.00;91466.06;4973365;28;19956;-76
2023/03/14 01:06:16;;;;;;;;;;;;;;;6.29;100.00;91450.16;4972337;28;19918;-77
2023/03/14 01:08:42;;;;;;;;;;;;;;;6.20;100.00;91459.66;4966803;28;19914;-77
2023/03/14 01:11:08;;;;;;;;;;;;;;;6.16;100.00;91454.25;4972167;28;19968;-77
2023/03/14 01:13:34;;;;;;;;;;;;;;;6.14;100.00;91440.00;4973167;28;19918;-77
2023/03/14 01:16:06;;;;;;;;;;;;;;;6.08;100.00;91439.34;4971793;28;19914;-77
2023/03/14 01:18:36;;;;;;;;;;;;;;;6.08;100.00;91438.53;4964781;28;19915;-77
2023/03/14 01:21:10;;;;;;;;;;;;;;;6.02;100.00;91430.84;4953783;29;19911;-77
2023/03/14 01:23:35;;;;;;;;;;;;;;;6.00;100.00;91417.34;4952673;29;19921;-76
2023/03/14 01:26:01;;;;;;;;;;;;;;;6.06;100.00;91425.84;4961107;28;19918;-77
2023/03/14 01:28:26;;;;;;;;;;;;;;;6.08;100.00;91409.97;4971475;28;20012;-77
2023/03/14 01:30:52;;;;;;;;;;;;;;;6.08;100.00;91402.16;4973239;28;19940;-76
2023/03/14 01:33:17;;;;;;;;;;;;;;;6.15;100.00;91397.41;4971941;28;19918;-76
2023/03/14 01:35:44;;;;;;;;;;;;;;;6.15;100.00;91400.00;4971814;28;19918;-77
2023/03/14 01:38:09;;;;;;;;;;;;;;;6.11;100.00;91402.38;4971748;28;19914;-77
2023/03/14 01:44:03;;;;;;;;;;;;;;;6.05;100.00;91390.53;4970733;28;19969;-77
2023/03/14 01:46:33;;;;;;;;;;;;;;;6.02;100.00;91378.09;4971704;28;19922;-77
2023/03/14 01:48:59;;;;;;;;;;;;;;;6.02;100.00;91380.69;4986932;28;19913;-77
2023/03/14 01:51:28;;;;;;;;;;;;;;;6.05;100.00;91373.09;4969259;28;19941;-76
2023/03/14 01:53:58;;;;;;;;;;;;;;;6.03;100.00;91384.84;4984345;28;19915;-77
2023/03/14 01:56:24;;;;;;;;;;;;;;;6.05;100.00;91357.50;4953371;28;20167;-77
2023/03/14 01:58:51;;;;;;;;;;;;;;;6.02;100.00;91342.50;4952238;29;19915;-77
2023/03/14 02:01:19;;;;;;;;;;;;;;;6.06;100.00;91340.13;4970639;28;19968;-77
2023/03/14 02:07:07;;;;;;;;;;;;;;;6.09;100.00;91343.97;4972672;28;19975;-77
2023/03/14 02:09:38;;;;;;;;;;;;;;;6.08;100.00;91324.22;4971575;28;19920;-77
2023/03/14 02:12:04;;;;;;;;;;;;;;;6.08;100.00;91325.00;4969545;28;19980;-77
2023/03/14 02:14:48;;;;;;;;;;;;;;;6.11;100.00;91334.06;4971432;28;20266;-77
2023/03/14 02:17:24;;;;;;;;;;;;;;;6.07;100.00;91341.66;4970591;28;19922;-77
2023/03/14 02:20:27;;;;;;;;;;;;;;;6.03;100.00;91362.25;4970963;28;19918;-77
2023/03/14 02:22:55;;;;;;;;;;;;;;;6.03;100.00;91366.66;4968130;28;19914;-77
2023/03/14 02:25:28;;;;;;;;;;;;;;;6.01;100.00;91363.56;4974587;28;19924;-76
2023/03/14 02:27:54;;;;;;;;;;;;;;;6.02;100.00;91365.88;4975078;28;19921;-77
2023/03/14 02:30:21;;;;;;;;;;;;;;;6.02;100.00;91373.69;4975131;28;19914;-76
2023/03/14 02:32:51;;;;;;;;;;;;;;;6.02;100.00;91393.69;4974231;28;19918;-77
2023/03/14 02:35:21;;;;;;;;;;;;;;;5.95;100.00;91399.25;4976088;28;19988;-77
2023/03/14 02:38:07;;;;;;;;;;;;;;;5.80;100.00;91397.63;4974987;28;19918;-77
2023/03/14 02:40:37;;;;;;;;;;;;;;;5.74;100.00;91403.97;4974927;28;19915;-77
2023/03/14 02:43:02;;;;;;;;;;;;;;;5.70;100.00;91404.81;4971269;28;19924;-77
2023/03/14 02:45:33;;;;;;;;;;;;;;;5.66;100.00;91396.81;4955475;29;19920;-77
2023/03/14 02:48:02;;;;;;;;;;;;;;;5.66;100.00;91385.66;4955543;29;19921;-77
2023/03/14 02:50:33;;;;;;;;;;;;;;;5.71;100.00;91385.56;4955792;28;19915;-77
2023/03/14 02:52:58;;;;;;;;;;;;;;;6.08;100.00;91381.38;4958138;28;20412;-77
2023/03/14 02:55:26;;;;;;;;;;;;;;;5.90;100.00;91364.75;4970031;28;19972;-77
2023/03/14 02:57:54;;;;;;;;;;;;;;;5.74;100.00;91357.22;4974465;28;19934;-78
2023/03/14 03:00:20;;;;;;;;;;;;;;;5.57;100.00;91351.75;4974950;28;19918;-76
2023/03/14 03:02:46;;;;;;;;;;;;;;;5.31;100.00;91341.72;4964115;28;19953;-76
2023/03/14 03:05:13;;;;;;;;;;;;;;;5.26;100.00;91328.06;4974652;28;19910;-76
2023/03/14 03:07:39;;;;;;;;;;;;;;;5.15;100.00;91306.69;4974217;28;20410;-76
2023/03/14 03:10:04;;;;;;;;;;;;;;;5.30;100.00;91313.50;4975817;28;19964;-76
2023/03/14 03:12:30;;;;;;;;;;;;;;;5.19;100.00;91321.41;4973977;28;19922;-76
2023/03/14 03:14:55;;;;;;;;;;;;;;;5.07;100.00;91313.28;4974378;28;19984;-77
2023/03/14 03:17:20;;;;;;;;;;;;;;;5.39;100.00;91322.19;4975301;28;19922;-76
2023/03/14 03:19:46;;;;;;;;;;;;;;;5.29;100.00;91319.72;4975092;28;20424;-77
2023/03/14 03:22:11;;;;;;;;;;;;;;;5.22;100.00;91309.69;4990476;28;19971;-77
2023/03/14 03:24:39;;;;;;;;;;;;;;;5.18;100.00;91306.91;4964238;28;19914;-77
2023/03/14 03:27:05;;;;;;;;;;;;;;;5.25;100.00;91313.56;4973983;28;20014;-77
2023/03/14 03:29:30;;;;;;;;;;;;;;;5.32;100.00;91313.97;4958006;28;20291;-77
2023/03/14 03:31:56;;;;;;;;;;;;;;;5.28;100.00;91307.81;4974080;28;19917;-77
2023/03/14 03:34:21;;;;;;;;;;;;;;;5.32;100.00;91298.41;4973487;28;19910;-77
2023/03/14 03:36:51;;;;;;;;;;;;;;;5.25;100.00;91295.41;4973921;28;19926;-77
2023/03/14 03:39:16;;;;;;;;;;;;;;;5.28;100.00;91279.25;4973997;28;20335;-77
2023/03/14 03:41:42;;;;;;;;;;;;;;;5.23;100.00;91280.13;4973687;28;20384;-77
2023/03/14 03:44:09;;;;;;;;;;;;;;;5.22;100.00;91279.34;4970278;28;19914;-77
2023/03/14 03:46:34;;;;;;;;;;;;;;;5.22;100.00;91278.56;4954560;29;19988;-76
2023/03/14 03:49:00;;;;;;;;;;;;;;;5.20;100.00;91278.84;4922801;29;19929;-76
2023/03/14 03:51:27;;;;;;;;;;;;;;;5.20;100.00;91273.66;4955622;28;19914;-76
2023/03/14 03:53:53;;;;;;;;;;;;;;;5.20;100.00;91286.63;4954506;29;19929;-76
2023/03/14 03:56:25;;;;;;;;;;;;;;;5.21;100.00;91293.34;4973203;28;19925;-76
2023/03/14 03:58:50;;;;;;;;;;;;;;;5.17;100.00;91281.22;4973490;28;19968;-76
2023/03/14 04:01:16;;;;;;;;;;;;;;;5.21;100.00;91293.34;4973486;28;19914;-76
2023/03/14 04:03:44;;;;;;;;;;;;;;;5.17;100.00;91291.59;4973329;28;19964;-77
2023/03/14 04:06:11;;;;;;;;;;;;;;;5.14;100.00;91294.78;4988804;28;19945;-76
2023/03/14 04:08:38;;;;;;;;;;;;;;;5.14;100.00;91289.59;4973312;28;19935;-76
2023/03/14 04:11:04;;;;;;;;;;;;;;;5.12;100.00;91289.09;4973154;28;19914;-76
2023/03/14 04:13:48;;;;;;;;;;;;;;;5.13;100.00;91283.59;4974753;28;19929;-76
2023/03/14 04:16:16;;;;;;;;;;;;;;;5.10;100.00;91283.41;4971685;28;19918;-76
2023/03/14 04:18:41;;;;;;;;;;;;;;;5.11;100.00;91277.16;4973069;28;19921;-76
2023/03/14 04:21:07;;;;;;;;;;;;;;;5.09;100.00;91274.88;4989200;28;19918;-76
2023/03/14 04:23:42;;;;;;;;;;;;;;;5.09;100.00;91272.28;4989335;28;20288;-77
2023/03/14 04:26:08;;;;;;;;;;;;;;;5.08;100.00;91268.13;4972451;28;19925;-78
2023/03/14 04:31:55;;;;;;;;;;;;;;;5.04;100.00;91277.50;4974262;28;19921;-77
2023/03/14 04:34:21;;;;;;;;;;;;;;;5.03;100.00;91277.81;4972689;28;19972;-77
2023/03/14 04:36:51;;;;;;;;;;;;;;;5.04;100.00;91281.94;4956929;28;20021;-77
2023/03/14 04:39:20;;;;;;;;;;;;;;;5.03;100.00;91283.75;4972694;28;19918;-77
2023/03/14 04:42:01;;;;;;;;;;;;;;;5.05;100.00;91281.66;4972750;28;19945;-78
2023/03/14 04:44:27;;;;;;;;;;;;;;;5.04;100.00;91272.31;4972686;28;19989;-77
2023/03/14 04:46:53;;;;;;;;;;;;;;;5.05;100.00;91263.50;4971536;28;19921;-77
2023/03/14 04:49:19;;;;;;;;;;;;;;;5.03;100.00;91268.19;4972292;28;19925;-77
2023/03/14 04:51:45;;;;;;;;;;;;;;;5.02;100.00;91264.06;4972484;28;19918;-77
2023/03/14 04:54:11;;;;;;;;;;;;;;;4.98;100.00;91269.03;4973618;28;20372;-77
2023/03/14 04:56:37;;;;;;;;;;;;;;;4.96;100.00;91255.59;4972111;28;19929;-77
2023/03/14 04:59:03;;;;;;;;;;;;;;;4.98;100.00;91248.31;4972465;28;19914;-77
2023/03/14 05:01:30;;;;;;;;;;;;;;;4.99;100.00;91241.28;4968612;28;19962;-77
2023/03/14 05:04:14;;;;;;;;;;;;;;;4.96;100.00;91234.06;4967406;28;19925;-77
2023/03/14 05:07:15;;;;;;;;;;;;;;;4.90;100.00;91235.19;4904936;29;19941;-77
2023/03/14 05:09:59;;;;;;;;;;;;;;;4.89;100.00;91225.88;4968727;28;20026;-77
2023/03/14 05:13:00;;;;;;;;;;;;;;;4.86;100.00;91200.50;4921239;29;20546;-77
2023/03/14 05:15:50;;;;;;;;;;;;;;;4.78;100.00;91179.34;4969046;28;19918;-78
2023/03/14 05:18:39;;;;;;;;;;;;;;;4.70;100.00;91146.28;4963383;28;19929;-78
2023/03/14 05:21:13;;;;;;;;;;;;;;;4.63;100.00;91117.34;4952793;29;20335;-77
2023/03/14 05:24:08;;;;;;;;;;;;;;;4.58;100.00;91088.94;4927359;28;19926;-77
2023/03/14 05:26:53;;;;;;;;;;;;;;;4.68;100.00;91067.25;4971821;28;20013;-78
2023/03/14 05:29:41;;;;;;;;;;;;;;;4.72;100.00;91069.00;4965982;28;20263;-77
2023/03/14 05:32:21;;;;;;;;;;;;;;;4.86;100.00;91073.44;4971712;28;20304;-77
2023/03/14 05:35:06;;;;;;;;;;;;;;;4.72;100.00;91086.38;4972947;28;19918;-78
2023/03/14 05:37:39;;;;;;;;;;;;;;;4.70;100.00;91086.66;4962857;28;20422;-80
2023/03/14 05:40:29;;;;;;;;;;;;;;;4.71;100.00;91090.03;4973318;28;19918;-77
2023/03/14 05:43:14;;;;;;;;;;;;;;;4.74;100.00;91123.94;4976742;28;19956;-80
2023/03/14 05:45:53;;;;;;;;;;;;;;;4.75;100.00;91138.44;4955448;28;19918;-81
2023/03/14 05:48:29;;;;;;;;;;;;;;;4.76;100.00;91129.59;4969934;28;20410;-81
2023/03/14 05:51:18;;;;;;;;;;;;;;;4.88;100.00;91130.97;4964082;28;20238;-80
2023/03/14 05:54:00;;;;;;;;;;;;;;;4.89;100.00;91148.84;4970250;28;20009;-80
2023/03/14 05:56:44;;;;;;;;;;;;;;;4.83;100.00;91157.00;4972115;28;19928;-80
2023/03/14 05:59:18;;;;;;;;;;;;;;;4.74;100.00;91157.63;4972108;28;19942;-80
2023/03/14 06:01:54;;;;;;;;;;;;;;;4.71;100.00;91167.81;4968938;28;20416;-79
2023/03/14 06:04:23;;;;;;;;;;;;;;;4.72;100.00;91177.88;4967456;28;20273;-80
2023/03/14 06:06:53;;;;;;;;;;;;;;;4.74;100.00;91186.16;4975182;28;19928;-80
2023/03/14 06:09:22;;;;;;;;;;;;;;;4.75;100.00;91184.31;4976173;28;19918;-80
2023/03/14 06:11:47;;;;;;;;;;;;;;;4.68;100.00;91182.06;4978650;28;19925;-79
2023/03/14 06:14:13;;;;;;;;;;;;;;;4.70;100.00;91192.19;4977283;28;19914;-80
2023/03/14 06:16:42;;;;;;;;;;;;;;;4.66;100.00;91199.75;4977675;28;19972;-81
2023/03/14 06:19:09;;;;;;;;;;;;;;;4.65;100.00;91193.03;4974014;28;19934;-82
2023/03/14 06:21:35;;;;;;;;;;;;;;;4.63;100.00;91194.34;4973646;28;19915;-83
2023/03/14 06:24:01;;;;;;;;;;;;;;;4.66;100.00;91201.56;4973261;28;19922;-80
2023/03/14 06:26:28;;;;;;;;;;;;;;;4.64;100.00;91196.69;4958437;29;19920;-80
2023/03/14 06:28:54;;;;;;;;;;;;;;;4.57;100.00;91193.63;4956363;28;19915;-81
2023/03/14 06:31:20;;;;;;;;;;;;;;;4.58;100.00;91192.59;4961247;28;19941;-81
2023/03/14 06:33:54;;;;;;;;;;;;;;;4.59;100.00;91196.72;4977035;28;19913;-81
2023/03/14 06:36:21;;;;;;;;;;;;;;;4.67;100.00;91196.09;4977263;28;20347;-79
2023/03/14 06:38:47;;;;;;;;;;;;;;;4.65;100.00;91194.84;4976248;28;19972;-80
2023/03/14 06:41:13;;;;;;;;;;;;;;;4.75;100.00;91200.66;4977642;28;19914;-81
2023/03/14 06:43:41;;;;;;;;;;;;;;;4.76;100.00;91194.41;4977047;28;19921;-80
2023/03/14 06:46:07;;;;;;;;;;;;;;;4.63;100.00;91181.41;4976134;28;19910;-81
2023/03/14 06:48:35;;;;;;;;;;;;;;;4.56;100.00;91184.34;4975335;28;19918;-80
2023/03/14 06:51:00;;;;;;;;;;;;;;;4.55;100.00;91183.56;4991715;28;19918;-80
2023/03/14 06:53:26;;;;;;;;;;;;;;;4.67;100.00;91190.16;4991594;28;19910;-80
2023/03/14 06:55:52;;;;;;;;;;;;;;;4.67;100.00;91196.09;4991644;28;20450;-81
2023/03/14 06:58:18;;;;;;;;;;;;;;;4.69;100.00;91194.00;4991848;28;20035;-81
2023/03/14 07:00:44;;;;;;;;;;;;;;;4.72;100.00;91195.25;4970336;28;20403;-80
2023/03/14 07:03:13;;;;;;;;;;;;;;;4.73;100.00;91182.03;4944706;28;19918;-81
2023/03/14 07:05:41;;;;;;;;;;;;;;;4.75;100.00;91185.09;4975001;28;19914;-81
2023/03/14 07:08:07;;;;;;;;;;;;;;;4.78;100.00;91181.19;4976063;28;20271;-81
2023/03/14 07:10:33;;;;;;;;;;;;;;;4.79;100.00;91187.88;4977798;28;19918;-80
2023/03/14 07:12:59;;;;;;;;;;;;;;;4.86;100.00;91190.13;4980204;28;19914;-80
2023/03/14 07:15:27;;;;;;;;;;;;;;;4.86;100.00;91190.13;4978316;28;19981;-79
2023/03/14 07:17:56;;;;;;;;;;;;;;;4.87;100.00;91186.50;4978998;28;20273;-79
2023/03/14 07:20:23;;;;;;;;;;;;;;;4.92;100.00;91191.59;4978963;28;19941;-80
2023/03/14 07:22:49;;;;;;;;;;;;;;;4.92;100.00;91186.41;4979236;28;19957;-80
2023/03/14 07:25:17;;;;;;;;;;;;;;;4.98;100.00;91198.25;4968260;28;19922;-79
2023/03/14 07:27:43;;;;;;;;;;;;;;;4.93;100.00;91199.09;4943970;29;19933;-78
2023/03/14 07:30:08;;;;;;;;;;;;;;;5.02;100.00;91212.19;4975520;28;19917;-80
2023/03/14 07:32:34;;;;;;;;;;;;;;;5.06;100.00;91215.00;4943157;29;20426;-80
2023/03/14 07:34:59;;;;;;;;;;;;;;;5.09;100.00;91220.41;4960995;29;19924;-79
2023/03/14 07:37:25;;;;;;;;;;;;;;;5.12;100.00;91217.22;4959938;29;19929;-79
2023/03/14 07:39:50;;;;;;;;;;;;;;;5.14;100.00;91217.72;4968171;28;19961;-81
2023/03/14 07:42:19;;;;;;;;;;;;;;;5.19;100.00;91211.66;4978694;28;19910;-80
2023/03/14 07:44:58;;;;;;;;;;;;;;;5.21;100.00;91218.13;4978920;28;19918;-81
2023/03/14 07:47:23;;;;;;;;;;;;;;;5.26;100.00;91226.88;4979030;28;19922;-81
2023/03/14 07:49:49;;;;;;;;;;;;;;;5.31;100.00;91230.16;4978430;28;20299;-80
2023/03/14 07:52:14;;;;;;;;;;;;;;;5.53;100.00;91232.13;4978235;28;19977;-79
2023/03/14 07:54:40;;;;;;;;;;;;;;;5.46;100.00;91236.16;4977754;28;19930;-81
2023/03/14 07:57:05;;;;;;;;;;;;;;;5.36;100.00;91244.91;4979672;28;19926;-81
2023/03/14 07:59:31;;;;;;;;;;;;;;;5.25;100.00;91246.88;4961776;28;19921;-80
2023/03/14 08:01:56;;;;;;;;;;;;;;;5.26;100.00;91250.22;4979737;28;19997;-81
2023/03/14 08:04:21;;;;;;;;;;;;;;;5.26;100.00;91260.63;4978025;28;19937;-79
2023/03/14 08:06:47;;;;;;;;;;;;;;;5.27;100.00;91262.13;4978266;28;20057;-81
2023/03/14 08:09:12;;;;;;;;;;;;;;;5.30;100.00;91262.34;4979577;28;20295;-80
2023/03/14 08:11:38;;;;;;;;;;;;;;;5.35;100.00;91266.69;4979468;28;19970;-80
2023/03/14 08:14:03;;;;;;;;;;;;;;;5.40;100.00;91274.41;4978836;28;19914;-79
2023/03/14 08:16:29;;;;;;;;;;;;;;;5.43;100.00;91264.22;4979286;28;19929;-80
2023/03/14 08:18:55;;;;;;;;;;;;;;;5.48;100.00;91260.78;4978766;28;20021;-80
2023/03/14 08:21:21;;;;;;;;;;;;;;;5.50;100.00;91256.06;4979300;28;19940;-79
2023/03/14 08:23:46;;;;;;;;;;;;;;;5.54;100.00;91244.06;4979515;28;20004;-80
2023/03/14 08:26:12;;;;;;;;;;;;;;;5.60;100.00;91250.69;4978880;28;19918;-80
2023/03/14 08:28:37;;;;;;;;;;;;;;;5.63;100.00;91247.56;4978207;28;20324;-80
2023/03/14 08:31:03;;;;;;;;;;;;;;;5.68;100.00;91253.72;4977506;28;20369;-80
2023/03/14 08:33:28;;;;;;;;;;;;;;;5.71;100.00;91256.50;4979166;28;20017;-80
2023/03/14 08:35:54;;;;;;;;;;;;;;;5.68;100.00;91253.72;4994014;28;19910;-80
2023/03/14 08:38:20;;;;;;;;;;;;;;;5.67;100.00;91252.16;4979280;28;19918;-80
2023/03/14 08:40:45;;;;;;;;;;;;;;;5.69;100.00;91250.06;4978666;28;19918;-80
2023/03/14 08:43:11;;;;;;;;;;;;;;;5.76;100.00;91240.81;4979032;28;19918;-80
2023/03/14 08:45:36;;;;;;;;;;;;;;;5.85;100.00;91230.56;4978955;28;19941;-80
2023/03/14 08:48:02;;;;;;;;;;;;;;;5.94;100.00;91235.84;4978676;28;19914;-80
2023/03/14 08:50:27;;;;;;;;;;;;;;;6.03;100.00;91242.75;4978829;28;19990;-80
2023/03/14 08:52:52;;;;;;;;;;;;;;;6.13;100.00;91243.59;4993413;28;19949;-80
2023/03/14 08:55:18;;;;;;;;;;;;;;;6.30;100.00;91238.56;4977675;28;19954;-80
2023/03/14 08:57:43;;;;;;;;;;;;;;;6.48;100.00;91244.72;4978704;28;19933;-79
2023/03/14 09:00:12;;;;;;;;;;;;;;;6.63;100.00;91241.06;4978530;28;20016;-79
2023/03/14 09:02:37;;;;;;;;;;;;;;;6.40;100.00;91238.41;4977458;28;20399;-79
2023/03/14 09:05:03;;;;;;;;;;;;;;;6.30;100.00;91230.78;4978421;28;19981;-79
2023/03/14 09:07:28;;;;;;;;;;;;;;;6.25;100.00;91241.28;4977047;28;19917;-79
2023/03/14 09:09:54;;;;;;;;;;;;;;;6.44;100.00;91230.78;4977791;28;19921;-79
2023/03/14 09:12:19;;;;;;;;;;;;;;;6.68;100.00;91240.94;4978700;28;19918;-80
2023/03/14 09:14:45;;;;;;;;;;;;;;;6.68;100.00;91235.75;4976634;28;19922;-80
2023/03/14 09:17:10;;;;;;;;;;;;;;;6.67;100.00;91236.81;4977259;28;19926;-80
2023/03/14 09:19:36;;;;;;;;;;;;;;;6.68;100.00;91233.91;4977230;28;19968;-80
2023/03/14 09:22:02;;;;;;;;;;;;;;;6.56;100.00;91227.69;4978184;28;19922;-80
2023/03/14 09:24:28;;;;;;;;;;;;;;;6.65;100.00;91225.94;4978686;28;19925;-80
2023/03/14 09:26:54;;;;;;;;;;;;;;;6.83;100.00;91219.81;4979055;28;19922;-80
2023/03/14 09:29:21;;;;;;;;;;;;;;;6.74;100.00;91221.56;4978512;28;19945;-80
2023/03/14 09:31:46;;;;;;;;;;;;;;;7.01;100.00;91219.97;4978260;28;20005;-80
2023/03/14 09:34:11;;;;;;;;;;;;;;;7.07;100.00;91214.34;4977995;28;19984;-79
2023/03/14 09:36:38;;;;;;;;;;;;;;;7.20;100.00;91215.34;4977169;28;19922;-80
2023/03/14 09:39:04;;;;;;;;;;;;;;;7.41;100.00;91217.50;4977636;28;19918;-81
2023/03/14 09:41:33;;;;;;;;;;;;;;;7.59;100.00;91219.13;4978433;28;19918;-80
2023/03/14 09:44:24;;;;;;;;;;;;;;;7.46;100.00;91215.53;4978347;28;19921;-79
2023/03/14 09:46:52;;;;;;;;;;;;;;;7.88;100.00;91218.66;4977747;28;20027;-80
2023/03/14 09:49:21;;;;;;;;;;;;;;;7.88;100.00;91210.84;4978465;28;19961;-80
2023/03/14 09:51:48;;;;;;;;;;;;;;;7.89;100.00;91216.81;4977464;28;19914;-80
2023/03/14 09:54:29;;;;;;;;;;;;;;;7.70;100.00;91222.22;4978384;28;19918;-80
2023/03/14 09:56:55;;;;;;;;;;;;;;;7.64;100.00;91232.03;4977355;28;20008;-80
2023/03/14 09:59:20;;;;;;;;;;;;;;;7.54;100.00;91234.84;4978311;28;19972;-81
2023/03/14 10:01:46;;;;;;;;;;;;;;;7.41;100.00;91235.72;4978182;28;19981;-80
2023/03/14 10:04:15;;;;;;;;;;;;;;;7.43;100.00;91233.56;4977863;28;19988;-80
2023/03/14 10:06:40;;;;;;;;;;;;;;;7.49;100.00;91229.78;4977425;28;19914;-80
2023/03/14 10:09:05;;;;;;;;;;;;;;;7.74;100.00;91222.41;4978747;28;19940;-81
2023/03/14 10:11:31;;;;;;;;;;;;;;;7.82;100.00;91224.31;4993264;28;19926;-81
2023/03/14 10:14:05;;;;;;;;;;;;;;;7.90;100.00;91216.53;4976700;28;19950;-80
2023/03/14 10:16:32;;;;;;;;;;;;;;;8.09;100.00;91216.28;4961158;28;19921;-80
2023/03/14 10:19:05;;;;;;;;;;;;;;;8.06;100.00;91206.47;4978916;28;19910;-80
2023/03/14 10:21:34;;;;;;;;;;;;;;;7.91;100.00;91196.44;4978601;28;19941;-80
2023/03/14 10:24:15;;;;;;;;;;;;;;;7.92;100.00;91188.34;4979104;28;19914;-80
2023/03/14 10:26:41;;;;;;;;;;;;;;;8.40;100.00;91189.44;4978785;28;19918;-80
2023/03/14 10:29:12;;;;;;;;;;;;;;;8.58;100.00;91187.63;4978919;28;19914;-80
2023/03/14 10:31:54;;;;;;;;;;;;;;;8.84;100.00;91192.84;4978212;28;20345;-80
2023/03/14 10:34:27;;;;;;;;;;;;;;;9.43;100.00;91186.38;4978897;28;19968;-80
2023/03/14 10:36:57;;;;;;;;;;;;;;;9.88;100.00;91186.72;4979300;28;19968;-80
2023/03/14 10:39:22;;;;;;;;;;;;;;;9.87;100.00;91187.81;4977805;28;19921;-79
2023/03/14 10:41:50;;;;;;;;;;;;;;;10.38;100.00;91182.69;4979244;28;19914;-80
2023/03/14 10:44:19;;;;;;;;;;;;;;;10.71;100.00;91189.91;4978852;28;20390;-80
2023/03/14 10:46:45;;;;;;;;;;;;;;;9.91;100.00;91195.81;4981170;28;19914;-79
2023/03/14 10:49:33;;;;;;;;;;;;;;;10.13;100.00;91187.72;4981021;28;19925;-80
2023/03/14 10:52:24;;;;;;;;;;;;;;;10.38;100.00;91193.16;4996304;28;20265;-80
2023/03/14 10:55:01;;;;;;;;;;;;;;;10.45;100.00;91187.44;4981735;28;19924;-80
2023/03/14 10:57:27;;;;;;;;;;;;;;;10.38;100.00;91195.78;4982426;28;20042;-80
2023/03/14 10:59:54;;;;;;;;;;;;;;;10.57;100.00;91195.38;4997500;28;19914;-79
2023/03/14 11:02:19;;;;;;;;;;;;;;;10.27;100.00;91191.94;4982093;28;19914;-81
2023/03/14 11:04:55;;;;;;;;;;;;;;;10.48;100.00;91187.56;4980474;28;19973;-80
2023/03/14 11:07:24;;;;;;;;;;;;;;;10.11;100.00;91189.09;4980862;28;20327;-80
2023/03/14 11:10:00;;;;;;;;;;;;;;;10.24;100.00;91197.81;4996133;28;19949;-79
2023/03/14 11:12:25;;;;;;;;;;;;;;;10.21;100.00;91201.84;4981936;28;19914;-81
2023/03/14 11:14:54;;;;;;;;;;;;;;;10.25;100.00;91201.97;4980843;28;19924;-81
2023/03/14 11:17:31;;;;;;;;;;;;;;;10.31;100.00;91203.34;4981614;28;20284;-80
2023/03/14 11:20:08;;;;;;;;;;;;;;;10.68;100.00;91196.53;4982339;28;19961;-81
2023/03/14 11:23:00;;;;;;;;;;;;;;;10.71;100.00;91195.91;4963076;28;20418;-81
2023/03/14 11:25:44;;;;;;;;;;;;;;;10.63;100.00;91189.66;4954586;29;19960;-81
2023/03/14 11:28:28;;;;;;;;;;;;;;;10.44;100.00;91178.81;4962731;29;19914;-81
2023/03/14 11:30:55;;;;;;;;;;;;;;;10.47;100.00;91187.88;4978875;28;19914;-80
2023/03/14 11:33:44;;;;;;;;;;;;;;;10.76;100.00;91187.09;4982197;28;19918;-80
2023/03/14 11:36:11;;;;;;;;;;;;;;;10.38;100.00;91193.94;4981181;28;19953;-81
2023/03/14 11:38:48;;;;;;;;;;;;;;;10.65;100.00;91181.50;4982195;28;19941;-80
2023/03/14 11:41:19;;;;;;;;;;;;;;;10.91;100.00;91167.44;4982760;28;19914;-80
2023/03/14 11:43:48;;;;;;;;;;;;;;;11.02;100.00;91179.81;4981438;28;19914;-81
2023/03/14 11:46:13;;;;;;;;;;;;;;;10.90;100.00;91181.59;4982558;28;19929;-81
2023/03/14 11:48:49;;;;;;;;;;;;;;;10.84;100.00;91183.66;4981910;28;19917;-81
2023/03/14 11:51:22;;;;;;;;;;;;;;;10.84;100.00;91166.09;4982923;28;20263;-80
2023/03/14 11:53:53;;;;;;;;;;;;;;;10.26;100.00;91166.88;4984082;28;19918;-81
2023/03/14 11:56:34;;;;;;;;;;;;;;;10.34;100.00;91166.13;4981729;28;19917;-80
2023/03/14 11:59:13;;;;;;;;;;;;;;;10.50;100.00;91166.34;4983145;28;19957;-80
2023/03/14 12:02:04;;;;;;;;;;;;;;;10.49;100.00;91165.56;4982785;28;19914;-80
2023/03/14 12:04:30;;;;;;;;;;;;;;;10.68;100.00;91157.28;4983195;28;19953;-80
2023/03/14 12:06:56;;;;;;;;;;;;;;;11.00;100.00;91147.94;4983153;28;19914;-80
2023/03/14 12:09:22;;;;;;;;;;;;;;;11.33;100.00;91152.47;4983781;28;19918;-79
2023/03/14 12:11:56;;;;;;;;;;;;;;;11.79;100.00;91132.25;4982757;28;20387;-81
2023/03/14 12:14:26;;;;;;;;;;;;;;;12.17;100.00;91131.22;4997933;28;19922;-80
2023/03/14 12:16:56;;;;;;;;;;;;;;;11.83;100.00;91125.25;4983297;28;19918;-80
2023/03/14 12:19:22;;;;;;;;;;;;;;;11.58;100.00;91121.09;4983852;28;20001;-80
2023/03/14 12:22:05;;;;;;;;;;;;;;;11.36;100.00;91128.22;4981879;28;19956;-79
2023/03/14 12:24:33;;;;;;;;;;;;;;;11.30;100.00;91126.88;4984067;28;19914;-79
2023/03/14 12:27:03;;;;;;;;;;;;;;;11.16;100.00;91115.94;4984380;28;19914;-79
2023/03/14 12:29:29;;;;;;;;;;;;;;;11.27;100.00;91127.53;4984120;28;20333;-79
2023/03/14 12:32:01;;;;;;;;;;;;;;;11.45;100.00;91118.44;4981294;28;19914;-79
2023/03/14 12:34:28;;;;;;;;;;;;;;;11.49;100.00;91110.69;4981235;28;19921;-80
2023/03/14 12:37:12;;;;;;;;;;;;;;;11.52;100.00;91112.66;4980982;28;19925;-80
2023/03/14 12:39:37;;;;;;;;;;;;;;;12.04;100.00;91119.94;4981500;28;20016;-80
2023/03/14 12:42:14;;;;;;;;;;;;;;;12.12;100.00;91107.06;4980500;28;19937;-80
2023/03/14 12:44:44;;;;;;;;;;;;;;;12.22;100.00;91109.25;4982135;28;19914;-80
2023/03/14 12:47:33;;;;;;;;;;;;;;;12.24;100.00;91117.56;4978057;28;20226;-80
2023/03/14 12:50:06;;;;;;;;;;;;;;;12.52;100.00;91111.59;4951456;29;19915;-79
2023/03/14 12:52:50;;;;;;;;;;;;;;;12.64;100.00;91104.47;4961434;28;19922;-80
2023/03/14 12:55:24;;;;;;;;;;;;;;;12.10;100.00;91099.53;4963214;28;19914;-80
2023/03/14 12:58:04;;;;;;;;;;;;;;;11.99;100.00;91106.31;4977074;28;19950;-80
2023/03/14 13:00:32;;;;;;;;;;;;;;;12.28;100.00;91103.44;4962849;29;19914;-79
2023/03/14 13:03:15;;;;;;;;;;;;;;;12.00;100.00;91094.72;4944123;29;19910;-79
2023/03/14 13:05:55;;;;;;;;;;;;;;;11.71;100.00;91087.78;4960586;29;19918;-79
2023/03/14 13:08:38;;;;;;;;;;;;;;;11.61;100.00;91088.97;4960376;28;19939;-80